createdAt,value
2023-09-05T00:00:58.580Z,5.50
2023-09-05T00:06:01.669Z,5.63
2023-09-05T00:11:03.669Z,5.93
2023-09-05T00:16:05.865Z,5.55
2023-09-05T00:26:09.695Z,5.50
2023-09-05T00:31:11.853Z,5.07
2023-09-05T00:41:15.719Z,5.20
2023-09-05T00:46:17.994Z,4.72
2023-09-05T00:51:20.360Z,5.22
2023-09-05T00:56:22.427Z,4.53
2023-09-05T01:01:24.498Z,3.47
2023-09-05T01:06:38.662Z,3.92
2023-09-05T01:11:41.936Z,4.53
2023-09-05T01:16:43.855Z,4.75
2023-09-05T01:22:07.488Z,4.85
2023-09-05T01:27:09.715Z,5.78
2023-09-05T01:32:11.853Z,5.63
2023-09-05T01:37:13.943Z,5.80
2023-09-05T01:42:16.168Z,5.22
2023-09-05T01:47:18.234Z,5.43
2023-09-05T01:52:20.262Z,5.63
2023-09-05T01:57:22.374Z,5.10
2023-09-05T02:02:24.626Z,5.55
2023-09-05T02:12:28.596Z,6.05
2023-09-05T02:17:30.852Z,5.82
2023-09-05T02:22:33.184Z,6.28
2023-09-05T02:27:35.190Z,5.55
2023-09-05T02:32:37.270Z,5.15
2023-09-05T02:37:39.455Z,5.60
2023-09-05T02:42:41.423Z,7.07
2023-09-05T02:47:43.657Z,6.40
2023-09-05T02:52:48.244Z,5.85
2023-09-05T02:57:50.978Z,6.03
2023-09-05T03:07:56.702Z,5.65
2023-09-05T03:12:58.722Z,5.45
2023-09-05T03:18:00.869Z,5.65
2023-09-05T03:23:02.948Z,5.60
2023-09-05T03:28:05.383Z,5.30
2023-09-05T03:33:07.927Z,4.95
2023-09-05T03:38:10.083Z,4.53
2023-09-05T03:43:12.248Z,4.70
2023-09-05T03:48:14.296Z,4.20
2023-09-05T03:53:16.354Z,4.18
2023-09-05T03:58:18.327Z,4.50
2023-09-05T04:03:20.466Z,4.30
2023-09-05T04:08:22.696Z,4.43
2023-09-05T04:13:24.789Z,4.55
2023-09-05T04:18:29.771Z,4.85
2023-09-05T04:23:31.651Z,4.80
2023-09-05T04:33:35.324Z,5.35
2023-09-05T04:38:38.193Z,5.60
2023-09-05T04:43:40.198Z,5.80
2023-09-05T04:48:42.141Z,5.15
2023-09-05T04:58:45.782Z,4.60
2023-09-05T05:03:47.723Z,4.50
2023-09-05T05:08:49.759Z,4.50
2023-09-05T05:13:51.700Z,4.40
2023-09-05T05:18:53.652Z,4.20
2023-09-05T05:23:55.677Z,3.50
2023-09-05T05:28:57.748Z,4.03
2023-09-05T05:39:01.498Z,3.38
2023-09-05T05:44:03.774Z,3.10
2023-09-05T05:49:05.911Z,2.72
2023-09-05T05:54:08.028Z,3.03
2023-09-05T05:59:10.017Z,3.50
2023-09-05T06:04:12.055Z,3.30
2023-09-05T06:09:14.057Z,3.08
2023-09-05T06:14:16.178Z,2.33
2023-09-05T06:19:18.254Z,2.20
2023-09-05T06:24:20.206Z,2.20
2023-09-05T06:29:22.179Z,2.10
2023-09-05T06:34:24.155Z,1.80
2023-09-05T06:39:26.130Z,2.03
2023-09-05T06:44:32.199Z,2.10
2023-09-05T06:49:34.117Z,1.52
2023-09-05T06:54:36.100Z,2.00
2023-09-05T06:59:38.043Z,1.65
2023-09-05T07:04:40.028Z,1.52
2023-09-05T07:09:42.058Z,1.88
2023-09-05T07:14:45.304Z,1.60
2023-09-05T07:19:47.633Z,1.60
2023-09-05T07:24:49.972Z,1.75
2023-09-05T07:29:51.937Z,1.50
2023-09-05T07:34:55.198Z,2.85
2023-09-05T07:39:57.171Z,1.70
2023-09-05T07:44:59.330Z,1.60
2023-09-05T07:50:01.257Z,1.65
2023-09-05T07:55:03.258Z,1.98
2023-09-05T08:00:05.743Z,1.92
2023-09-05T08:05:08.294Z,2.20
2023-09-05T08:10:10.402Z,2.20
2023-09-05T08:15:12.410Z,2.40
2023-09-05T08:20:14.359Z,2.10
2023-09-05T08:25:16.354Z,2.28
2023-09-05T08:30:18.458Z,2.30
2023-09-05T08:35:20.407Z,2.20
2023-09-05T08:40:22.369Z,2.38
2023-09-05T08:45:24.553Z,2.30
2023-09-05T08:50:26.489Z,2.17
2023-09-05T08:55:28.626Z,2.17
2023-09-05T09:00:30.534Z,3.53
2023-09-05T09:05:32.458Z,2.00
2023-09-05T09:10:34.417Z,2.20
2023-09-05T09:15:40.588Z,2.45
2023-09-05T09:20:43.926Z,2.38
2023-09-05T09:25:49.140Z,2.42
2023-09-05T09:30:58.483Z,2.75
2023-09-05T09:36:11.862Z,2.40
2023-09-05T09:41:13.894Z,2.97
2023-09-05T09:46:16.030Z,3.20
2023-09-05T09:51:18.166Z,3.00
2023-09-05T09:56:20.187Z,2.88
2023-09-05T10:01:22.297Z,4.75
2023-09-05T10:06:24.328Z,2.70
2023-09-05T10:11:26.298Z,2.67
2023-09-05T10:16:28.279Z,2.53
2023-09-05T10:21:30.370Z,3.00
2023-09-05T10:26:32.370Z,2.70
2023-09-05T10:31:34.363Z,2.75
2023-09-05T10:36:43.104Z,2.90
2023-09-05T10:41:45.243Z,2.80
2023-09-05T10:46:53.180Z,2.85
2023-09-05T10:52:17.040Z,2.55
2023-09-05T10:57:38.247Z,2.70
2023-09-05T11:02:40.478Z,2.92
2023-09-05T11:07:42.449Z,3.00
2023-09-05T11:12:44.339Z,2.88
2023-09-05T11:18:05.824Z,2.72
2023-09-05T11:23:12.231Z,2.90
2023-09-05T11:28:14.970Z,2.88
2023-09-05T11:33:17.354Z,3.70
2023-09-05T11:38:20.841Z,2.70
2023-09-05T11:43:23.024Z,2.83
2023-09-05T11:48:26.290Z,2.70
2023-09-05T11:53:28.515Z,2.90
2023-09-05T11:58:31.416Z,2.70
2023-09-05T12:03:36.832Z,3.10
2023-09-05T12:08:40.314Z,3.13
2023-09-05T12:13:43.298Z,2.85
2023-09-05T12:18:47.119Z,4.53
2023-09-05T12:23:49.691Z,3.35
2023-09-05T12:28:54.911Z,5.50
2023-09-05T12:33:56.961Z,3.00
2023-09-05T12:38:58.946Z,3.40
2023-09-05T12:44:00.933Z,3.35
2023-09-05T12:49:02.881Z,3.20
2023-09-05T12:54:05.034Z,3.28
2023-09-05T12:59:07.035Z,3.70
2023-09-05T13:04:09.046Z,3.10
2023-09-05T13:09:11.082Z,2.70
2023-09-05T13:14:13.114Z,3.10
2023-09-05T13:19:15.139Z,4.30
2023-09-05T13:24:17.034Z,3.40
2023-09-05T13:29:18.994Z,3.22
2023-09-05T13:34:21.173Z,8.02
2023-09-05T13:39:23.297Z,3.30
2023-09-05T13:44:25.576Z,3.20
2023-09-05T13:49:27.514Z,2.50
2023-09-05T13:54:29.452Z,2.90
2023-09-05T13:59:31.582Z,2.70
2023-09-05T14:04:33.759Z,5.50
2023-09-05T14:09:35.952Z,3.20
2023-09-05T14:14:39.274Z,2.80
2023-09-05T14:19:41.416Z,2.80
2023-09-05T14:24:43.610Z,3.00
2023-09-05T14:29:45.690Z,3.08
2023-09-05T14:34:47.684Z,3.20
2023-09-05T14:39:49.860Z,3.85
2023-09-05T14:44:51.875Z,3.03
2023-09-05T14:49:53.968Z,3.22
2023-09-05T14:54:56.183Z,2.95
2023-09-05T14:59:58.191Z,3.38
2023-09-05T15:05:00.128Z,3.72
2023-09-05T15:10:02.326Z,6.05
2023-09-05T15:15:06.560Z,3.47
2023-09-05T15:20:09.657Z,4.10
2023-09-05T15:25:15.731Z,3.13
2023-09-05T15:30:18.080Z,3.70
2023-09-05T15:35:20.208Z,4.00
2023-09-05T15:40:22.562Z,4.10
2023-09-05T15:45:24.679Z,4.50
2023-09-05T15:50:26.777Z,3.42
2023-09-05T15:55:28.891Z,3.88
2023-09-05T16:00:31.081Z,3.60
2023-09-05T16:05:33.283Z,3.97
2023-09-05T16:10:35.415Z,3.80
2023-09-05T16:15:37.537Z,3.60
2023-09-05T16:20:53.861Z,3.42
2023-09-05T16:25:58.317Z,4.10
2023-09-05T16:31:00.644Z,4.07
2023-09-05T16:36:04.150Z,3.97
2023-09-05T16:41:09.919Z,4.13
2023-09-05T16:46:15.411Z,7.43
2023-09-05T16:51:19.900Z,4.43
2023-09-05T16:56:21.933Z,4.78
2023-09-05T17:06:25.870Z,5.47
2023-09-05T17:16:33.501Z,5.38
2023-09-05T17:26:37.597Z,5.97
2023-09-05T17:36:41.554Z,5.53
2023-09-05T17:41:43.664Z,5.07
2023-09-05T17:46:45.693Z,5.05
2023-09-05T17:56:49.749Z,5.40
2023-09-05T18:01:52.256Z,5.30
2023-09-05T18:06:54.366Z,5.25
2023-09-05T18:16:58.340Z,5.90
2023-09-05T18:22:00.433Z,5.47
2023-09-05T18:27:06.933Z,5.63
2023-09-05T18:32:09.575Z,5.82
2023-09-05T18:42:13.300Z,5.20
2023-09-05T18:47:15.409Z,5.30
2023-09-05T18:52:17.713Z,5.68
2023-09-05T18:57:19.961Z,5.47
2023-09-05T19:07:23.817Z,5.70
2023-09-05T19:17:27.578Z,5.75
2023-09-05T19:27:31.498Z,5.82
2023-09-05T19:32:33.748Z,5.20
2023-09-05T19:37:36.084Z,5.20
2023-09-05T19:42:38.113Z,5.47
2023-09-05T19:52:42.258Z,5.10
2023-09-05T20:02:46.324Z,5.32
2023-09-05T20:07:48.442Z,5.45
2023-09-05T20:17:52.504Z,5.55
2023-09-05T20:22:54.694Z,5.45
2023-09-05T20:27:56.799Z,6.22
2023-09-05T20:38:00.741Z,5.55
2023-09-05T20:43:02.720Z,5.63
2023-09-05T20:53:06.809Z,5.30
2023-09-05T20:58:08.906Z,5.10
2023-09-05T21:08:12.959Z,5.15
2023-09-05T21:18:16.639Z,4.90
2023-09-05T21:23:18.618Z,5.43
2023-09-05T21:28:20.531Z,5.72
2023-09-05T21:33:22.495Z,5.32
2023-09-05T21:38:24.494Z,5.03
2023-09-05T21:43:26.559Z,5.03
2023-09-05T21:53:30.893Z,4.68
2023-09-05T21:58:32.958Z,4.68
2023-09-05T22:03:34.992Z,5.10
2023-09-05T22:08:37.140Z,5.03
2023-09-05T22:18:41.335Z,5.32
2023-09-05T22:23:43.420Z,4.93
2023-09-05T22:28:45.467Z,5.22
2023-09-05T22:38:49.382Z,4.97
2023-09-05T22:43:51.435Z,4.90
2023-09-05T22:48:53.558Z,4.90
2023-09-05T22:53:55.676Z,5.43
2023-09-05T23:03:59.619Z,4.95
2023-09-05T23:14:03.385Z,4.70
2023-09-05T23:19:05.559Z,5.07
2023-09-05T23:29:09.471Z,5.28
2023-09-05T23:34:11.551Z,4.82
2023-09-05T23:39:13.842Z,5.18
2023-09-05T23:44:15.940Z,5.32
2023-09-05T23:49:18.035Z,4.70
2023-09-05T23:59:21.821Z,4.85
